Kansas City, Kansas
Current Conditions -  °F | °C
As of 9:54 PM on Tuesday 21 Oct 2014 (Local Time) from KMKC Reporting Station
Clear Clear  
Wind Chill: 60°   Ceiling: Unl
Heat Index: 60°   Visibility: 10mi
Dew Point: 43°   Wind: 8mph
Humidity: 53%   Direction: 60°ENE
Pressure: 30.1"   Gusts: NA
Location:  39.11°N, 94.63°W
Report Text: KMKC 220254Z 06007KT 10SM CLR 16/06 A3010 RMK AO2 SLP192 T01560061 53013
Loading
Personal Weather Stations






























Interactive Weather Map New forecast layout! Learn more

10-Day Weather Forecast

Advertisements
Track Severe Weather on mobile